Sun Valley, Arizona
Current Conditions -  °F | °C
As of 6:56 AM on Thursday 23 Oct 2014 (Local Time) from KINW Reporting Station
Clear Clear  
Wind Chill: 42°   Ceiling: Unl
Heat Index: 42°   Visibility: 10mi
Dew Point: 37°   Wind: 3mph
Humidity: 82%   Direction: 130°SE
Pressure: 30.24"   Gusts: NA
Location:  34.9°N, 110.16°W
Report Text: KINW 231356Z AUTO 13003KT 10SM CLR 06/03 A3024 RMK AO2 SLP212 T00560028
Loading
Personal Weather Stations






























Interactive Weather Map
Tropical Storm Tracking
New forecast layout! Learn more

10-Day Weather Forecast

Advertisements
Track Severe Weather on mobile